createdAt,value
2023-02-09T11:37:52.711Z,93.18
2023-02-09T11:38:54.756Z,93.73
2023-02-09T11:39:52.817Z,94.13
2023-02-09T11:40:55.860Z,94.13
2023-02-09T11:41:52.742Z,94.29
2023-02-09T11:42:52.688Z,94.42
2023-02-09T11:43:52.792Z,93.54
2023-02-09T11:44:52.572Z,94.41
2023-02-09T11:45:53.715Z,94.38
2023-02-09T11:46:53.159Z,95.70
2023-02-09T11:47:52.838Z,96.64
2023-02-09T11:48:52.768Z,96.03
2023-02-09T11:49:52.738Z,95.42
2023-02-09T11:50:52.767Z,94.70
2023-02-09T11:51:52.773Z,95.87
2023-02-09T11:52:52.683Z,95.65
2023-02-09T11:53:52.737Z,95.56
2023-02-09T11:54:52.702Z,95.64
2023-02-09T11:55:52.767Z,95.57
2023-02-09T12:01:41.660Z,95.15
2023-02-09T12:02:41.848Z,94.79
2023-02-09T12:03:41.640Z,93.89
2023-02-09T12:04:41.660Z,94.58
2023-02-09T12:05:42.194Z,95.19
2023-02-09T12:09:21.838Z,93.65
2023-02-09T12:10:21.848Z,92.70
2023-02-09T12:12:22.934Z,91.37
2023-02-09T12:13:23.025Z,91.62
2023-02-09T12:14:23.016Z,91.71
2023-02-09T12:16:29.819Z,92.47
2023-02-09T12:17:29.700Z,91.56
2023-02-09T12:20:32.660Z,89.17
2023-02-09T12:23:20.610Z,88.05
2023-02-09T12:24:20.701Z,86.50
2023-02-09T12:28:38.827Z,84.75
2023-02-09T12:29:36.636Z,84.41
2023-02-09T12:40:20.323Z,82.20
2023-02-09T12:44:33.897Z,78.80
2023-02-09T12:49:00.499Z,79.75
2023-02-09T12:50:00.323Z,79.05
2023-02-09T12:52:10.282Z,80.34
2023-02-09T12:54:51.997Z,83.01
2023-02-09T12:55:55.057Z,83.16
2023-02-09T12:56:52.122Z,84.26
2023-02-09T12:57:52.034Z,85.97
2023-02-09T12:58:52.054Z,86.62
2023-02-09T12:59:51.996Z,87.16
2023-02-09T13:00:52.165Z,87.86
2023-02-09T13:01:54.049Z,88.54
2023-02-09T13:02:52.054Z,88.97
2023-02-09T13:03:54.092Z,87.62
2023-02-09T13:07:16.809Z,86.37
2023-02-09T13:08:20.742Z,85.57
2023-02-09T13:09:15.708Z,84.37
2023-02-09T13:10:16.256Z,84.49
2023-02-09T13:11:15.729Z,85.88
2023-02-09T13:12:15.691Z,87.23
2023-02-09T13:13:15.691Z,86.37
2023-02-09T13:14:17.723Z,86.85
2023-02-09T13:15:15.775Z,88.13
2023-02-09T13:16:15.833Z,89.09
2023-02-09T13:17:15.869Z,89.93
2023-02-09T13:18:15.716Z,90.70
2023-02-09T13:19:16.116Z,91.67
2023-02-09T13:20:16.083Z,93.03
2023-02-09T13:21:16.032Z,95.16
2023-02-09T13:22:16.246Z,96.21
2023-02-09T13:23:16.506Z,96.96
2023-02-09T13:24:16.132Z,97.18
2023-02-09T13:25:16.059Z,97.91
2023-02-09T13:26:16.219Z,99.06
2023-02-09T13:27:15.911Z,97.64
2023-02-09T13:28:16.153Z,97.86
2023-02-09T13:29:20.838Z,98.62
2023-02-09T13:30:23.671Z,99.13
2023-02-09T13:31:24.942Z,100.00
2023-02-09T13:32:16.341Z,100.00
2023-02-09T13:33:15.885Z,99.61
2023-02-09T13:34:16.195Z,100.00
2023-02-09T13:35:22.612Z,100.00
2023-02-09T13:36:24.157Z,100.00
2023-02-09T13:37:16.215Z,100.00
2023-02-09T13:38:18.337Z,100.00
2023-02-09T13:39:16.257Z,100.00
2023-02-09T13:40:16.010Z,100.00
2023-02-09T13:41:16.926Z,100.00
2023-02-09T13:42:18.075Z,100.00
2023-02-09T13:43:16.084Z,100.00
2023-02-09T13:44:19.942Z,100.00
2023-02-09T13:45:23.646Z,100.00
2023-02-09T13:46:18.193Z,100.00
2023-02-09T13:47:16.005Z,100.00
2023-02-09T13:48:16.148Z,100.00
2023-02-09T13:49:16.549Z,100.00
2023-02-09T13:50:16.330Z,100.00
2023-02-09T13:51:16.136Z,100.00
2023-02-09T13:52:16.431Z,100.00
2023-02-09T13:53:16.141Z,100.00
2023-02-09T13:54:16.437Z,100.00
2023-02-09T13:55:16.423Z,100.00
2023-02-09T13:56:16.483Z,100.00
2023-02-09T13:57:16.203Z,100.00
2023-02-09T13:58:16.301Z,100.00
2023-02-09T13:59:16.371Z,100.00
2023-02-09T14:00:19.188Z,100.00
2023-02-09T14:01:16.271Z,100.00
2023-02-09T14:02:16.425Z,100.00
2023-02-09T14:03:16.388Z,100.00
2023-02-09T14:04:16.443Z,100.00
2023-02-09T14:05:16.307Z,100.00
2023-02-09T14:06:16.540Z,100.00
2023-02-09T14:07:21.103Z,100.00
2023-02-09T14:08:37.240Z,100.00
2023-02-09T14:09:20.513Z,100.00
2023-02-09T14:10:22.634Z,100.00
2023-02-09T14:11:16.910Z,100.00
2023-02-09T14:12:18.882Z,100.00
2023-02-09T14:13:27.349Z,100.00
2023-02-09T14:14:16.782Z,100.00
2023-02-09T14:15:25.260Z,100.00
2023-02-09T14:16:16.645Z,100.00
2023-02-09T14:17:24.706Z,100.00
2023-02-09T14:18:16.313Z,100.00
2023-02-09T14:19:25.274Z,100.00
2023-02-09T14:20:16.863Z,100.00
2023-02-09T14:21:18.887Z,100.00
2023-02-09T14:22:16.393Z,100.00
2023-02-09T14:23:16.718Z,100.00
2023-02-09T14:24:16.638Z,100.00
2023-02-09T14:25:19.917Z,100.00
2023-02-09T14:26:16.720Z,100.00
2023-02-09T14:27:19.242Z,100.00
2023-02-09T14:28:27.300Z,100.00
2023-02-09T14:29:19.434Z,100.00
2023-02-09T14:30:17.468Z,100.00
2023-02-09T14:31:16.664Z,100.00
2023-02-09T14:32:24.235Z,100.00
2023-02-09T14:33:22.627Z,100.00
2023-02-09T14:34:16.738Z,100.00
2023-02-09T14:35:16.956Z,100.00
2023-02-09T14:36:50.984Z,100.00
